Time;durP1;ratioP1;P1;durP2;ratioP2;P2;SDS_P1;SDS_P2;PMS_P1;PMS_P2;Temp;Humidity;BMP_temperature;BMP_pressure;BME280_temperature;BME280_humidity;BME280_pressure;Samples;Min_cycle;Max_cycle;Signal;HPM_P1;HPM_P2
2022/02/26 00:03:40;;;;;;;6.43;1.90;;;;;;;;;;10539488;28;20050;-64
2022/02/26 00:08:40;;;;;;;4.53;1.50;;;;;;;;;;10535478;28;20383;-64
2022/02/26 00:13:41;;;;;;;2.57;1.57;;;;;;;;;;10536849;28;20484;-63
2022/02/26 00:18:41;;;;;;;3.45;1.70;;;;;;;;;;10538139;28;20028;-65
2022/02/26 00:23:43;;;;;;;3.03;1.55;;;;;;;;;;10535689;28;20455;-64
2022/02/26 00:28:43;;;;;;;4.28;1.52;;;;;;;;;;10538042;28;20032;-66
2022/02/26 00:33:44;;;;;;;6.60;1.50;;;;;;;;;;10534446;28;20471;-65
2022/02/26 00:38:45;;;;;;;2.80;1.33;;;;;;;;;;10537668;28;20480;-65
2022/02/26 00:43:46;;;;;;;2.85;1.17;;;;;;;;;;10537426;28;20032;-64
2022/02/26 00:54:05;;;;;;;3.25;1.30;;;;;;;;;;10535546;28;20417;-62
2022/02/26 00:59:05;;;;;;;7.03;1.97;;;;;;;;;;10534169;28;20138;-63
2022/02/26 01:04:06;;;;;;;3.13;1.60;;;;;;;;;;10534495;28;20429;-63
2022/02/26 01:09:07;;;;;;;9.93;1.98;;;;;;;;;;10534934;28;20032;-62
2022/02/26 01:14:07;;;;;;;3.25;1.50;;;;;;;;;;10535612;28;20442;-64
2022/02/26 01:19:08;;;;;;;5.00;1.40;;;;;;;;;;10535685;28;20028;-64
2022/02/26 01:24:08;;;;;;;8.20;1.20;;;;;;;;;;10536521;28;20024;-64
2022/02/26 01:29:08;;;;;;;2.17;1.37;;;;;;;;;;10536307;28;20120;-65
2022/02/26 01:34:09;;;;;;;5.20;1.50;;;;;;;;;;10533014;28;20096;-63
2022/02/26 01:39:11;;;;;;;6.53;1.40;;;;;;;;;;10532542;28;20765;-65
2022/02/26 01:44:11;;;;;;;4.38;1.83;;;;;;;;;;10535171;28;20502;-64
2022/02/26 01:49:11;;;;;;;6.18;1.80;;;;;;;;;;10534802;28;20035;-64
2022/02/26 01:54:12;;;;;;;1.83;1.27;;;;;;;;;;10534945;28;20024;-63
2022/02/26 01:59:12;;;;;;;2.63;1.50;;;;;;;;;;10534536;28;20750;-64
2022/02/26 02:04:14;;;;;;;1.80;1.40;;;;;;;;;;10534892;28;20839;-64
2022/02/26 02:09:14;;;;;;;2.78;1.40;;;;;;;;;;10532959;28;20510;-64
2022/02/26 02:14:15;;;;;;;2.43;1.27;;;;;;;;;;10534228;28;20024;-64
2022/02/26 02:19:16;;;;;;;2.93;1.30;;;;;;;;;;10533785;28;20506;-64
2022/02/26 02:24:16;;;;;;;2.00;1.30;;;;;;;;;;10534285;28;20960;-64
2022/02/26 02:29:16;;;;;;;1.37;1.03;;;;;;;;;;10533433;28;20035;-63
2022/02/26 02:34:17;;;;;;;1.77;1.30;;;;;;;;;;10532854;28;20857;-61
2022/02/26 02:39:18;;;;;;;3.15;1.30;;;;;;;;;;10530205;28;20042;-63
2022/02/26 02:44:18;;;;;;;1.07;1.03;;;;;;;;;;10532077;28;20460;-61
2022/02/26 02:49:19;;;;;;;5.03;1.30;;;;;;;;;;10529886;28;20457;-65
2022/02/26 02:54:19;;;;;;;1.77;1.10;;;;;;;;;;10534208;28;20464;-65
2022/02/26 02:59:19;;;;;;;2.13;1.10;;;;;;;;;;10531688;28;20043;-64
2022/02/26 03:04:20;;;;;;;5.07;1.20;;;;;;;;;;10534456;28;20238;-61
2022/02/26 03:09:20;;;;;;;4.33;1.17;;;;;;;;;;10538734;28;20460;-63
2022/02/26 03:14:20;;;;;;;3.03;1.33;;;;;;;;;;10538903;28;20524;-61
2022/02/26 03:19:22;;;;;;;1.90;1.37;;;;;;;;;;10538478;28;20024;-60
2022/02/26 03:24:22;;;;;;;1.52;1.15;;;;;;;;;;10538600;28;20101;-60
2022/02/26 03:29:24;;;;;;;2.70;1.40;;;;;;;;;;10537842;28;20043;-65
2022/02/26 03:34:25;;;;;;;1.35;1.02;;;;;;;;;;10537306;28;20485;-62
2022/02/26 03:39:31;;;;;;;4.47;1.40;;;;;;;;;;10537396;28;20031;-63
2022/02/26 03:44:32;;;;;;;1.00;1.00;;;;;;;;;;10537847;28;20425;-65
2022/02/26 03:49:33;;;;;;;2.15;1.48;;;;;;;;;;10532772;28;20379;-65
2022/02/26 03:54:33;;;;;;;1.50;1.00;;;;;;;;;;10533664;28;20032;-65
2022/02/26 03:59:33;;;;;;;2.08;1.02;;;;;;;;;;10498728;28;1127371;-64
2022/02/26 04:04:35;;;;;;;2.72;1.10;;;;;;;;;;10539165;28;20365;-65
2022/02/26 04:09:35;;;;;;;4.45;0.98;;;;;;;;;;10539976;28;20380;-64
2022/02/26 04:14:36;;;;;;;2.33;1.30;;;;;;;;;;10539016;28;20384;-65
2022/02/26 04:19:36;;;;;;;1.20;1.10;;;;;;;;;;10538824;28;20950;-64
2022/02/26 04:24:36;;;;;;;1.50;1.10;;;;;;;;;;10539465;28;20445;-64
2022/02/26 04:29:37;;;;;;;1.10;0.90;;;;;;;;;;10538239;28;20028;-65
2022/02/26 04:34:37;;;;;;;1.20;1.10;;;;;;;;;;10538307;28;20153;-65
2022/02/26 04:39:37;;;;;;;1.33;0.93;;;;;;;;;;10538525;28;20030;-65
2022/02/26 04:44:38;;;;;;;1.60;1.20;;;;;;;;;;10537899;28;20024;-64
2022/02/26 04:49:39;;;;;;;1.37;1.10;;;;;;;;;;10538153;28;20115;-64
2022/02/26 04:54:39;;;;;;;1.63;1.20;;;;;;;;;;10534435;28;20031;-65
2022/02/26 04:59:40;;;;;;;3.47;1.30;;;;;;;;;;10533932;28;20245;-65
2022/02/26 05:04:40;;;;;;;3.07;1.27;;;;;;;;;;10537777;28;21002;-64
2022/02/26 05:09:42;;;;;;;1.25;1.10;;;;;;;;;;10537126;28;20461;-62
2022/02/26 05:14:42;;;;;;;1.30;1.20;;;;;;;;;;10536604;28;20047;-64
2022/02/26 05:19:43;;;;;;;7.67;1.00;;;;;;;;;;10536760;28;20024;-64
2022/02/26 05:24:44;;;;;;;2.03;1.00;;;;;;;;;;10536273;28;20593;-65
2022/02/26 05:29:44;;;;;;;1.63;1.02;;;;;;;;;;10534422;28;20449;-65
2022/02/26 05:34:44;;;;;;;0.93;0.87;;;;;;;;;;10535729;28;20509;-65
2022/02/26 05:39:45;;;;;;;2.00;1.20;;;;;;;;;;10536017;28;20453;-65
2022/02/26 05:44:45;;;;;;;1.07;0.93;;;;;;;;;;10534121;28;20035;-66
2022/02/26 05:49:46;;;;;;;1.10;1.00;;;;;;;;;;10535140;28;20539;-62
2022/02/26 05:54:46;;;;;;;2.33;1.00;;;;;;;;;;10535079;28;20052;-63
2022/02/26 05:59:46;;;;;;;3.37;1.00;;;;;;;;;;10530889;28;20465;-62
2022/02/26 06:04:47;;;;;;;1.43;0.80;;;;;;;;;;10531445;28;20161;-61
2022/02/26 06:09:47;;;;;;;1.10;1.00;;;;;;;;;;10534873;28;20464;-62
2022/02/26 06:14:47;;;;;;;2.60;1.10;;;;;;;;;;10532961;28;20036;-64
2022/02/26 06:19:48;;;;;;;0.93;0.87;;;;;;;;;;10534023;28;20115;-60
2022/02/26 06:24:48;;;;;;;3.63;0.90;;;;;;;;;;10534029;28;20444;-60
2022/02/26 06:29:49;;;;;;;0.90;0.90;;;;;;;;;;10533830;28;20476;-61
2022/02/26 06:34:49;;;;;;;1.20;1.00;;;;;;;;;;10533463;28;20512;-60
2022/02/26 06:39:49;;;;;;;0.95;0.90;;;;;;;;;;10533747;28;20070;-62
2022/02/26 06:44:50;;;;;;;1.10;1.00;;;;;;;;;;10533353;28;20456;-62
2022/02/26 06:49:51;;;;;;;3.92;1.17;;;;;;;;;;10533887;28;20035;-64
2022/02/26 06:54:51;;;;;;;2.40;1.13;;;;;;;;;;10533767;28;20085;-60
2022/02/26 06:59:51;;;;;;;1.70;0.97;;;;;;;;;;10532865;28;20456;-63
2022/02/26 07:04:52;;;;;;;1.07;0.90;;;;;;;;;;10529840;28;20021;-61
2022/02/26 07:09:52;;;;;;;1.60;1.40;;;;;;;;;;10529371;28;20524;-63
2022/02/26 07:14:52;;;;;;;2.30;1.10;;;;;;;;;;10533312;28;20032;-64
2022/02/26 07:19:53;;;;;;;2.17;1.03;;;;;;;;;;10532523;28;20433;-65
2022/02/26 07:24:53;;;;;;;1.70;1.07;;;;;;;;;;10531958;28;20780;-62
2022/02/26 07:29:53;;;;;;;2.23;1.00;;;;;;;;;;10531402;28;20621;-63
2022/02/26 07:34:54;;;;;;;6.37;1.00;;;;;;;;;;10531403;28;20111;-64
2022/02/26 07:39:54;;;;;;;1.75;1.33;;;;;;;;;;10532387;28;20030;-64
2022/02/26 07:44:55;;;;;;;2.88;1.65;;;;;;;;;;10532468;28;20039;-63
2022/02/26 07:49:55;;;;;;;4.13;1.60;;;;;;;;;;10534771;28;20054;-63
2022/02/26 07:54:55;;;;;;;4.80;1.75;;;;;;;;;;10539238;28;20999;-63
2022/02/26 07:59:56;;;;;;;8.90;2.00;;;;;;;;;;10539089;28;20139;-62
2022/02/26 08:04:57;;;;;;;13.25;1.88;;;;;;;;;;10539017;28;20141;-63
2022/02/26 08:09:57;;;;;;;7.13;2.05;;;;;;;;;;10534888;28;20270;-63
2022/02/26 08:14:57;;;;;;;5.13;2.20;;;;;;;;;;10535434;28;20020;-63
2022/02/26 08:19:58;;;;;;;15.43;4.87;;;;;;;;;;10538328;28;20441;-62
2022/02/26 08:24:58;;;;;;;8.93;4.27;;;;;;;;;;10537916;28;20055;-63
2022/02/26 08:29:58;;;;;;;25.83;3.70;;;;;;;;;;10538072;28;20081;-63
2022/02/26 08:34:59;;;;;;;6.40;3.42;;;;;;;;;;10536534;28;20486;-64
2022/02/26 08:40:00;;;;;;;4.30;3.20;;;;;;;;;;10535822;28;20024;-63
2022/02/26 08:45:04;;;;;;;7.50;2.95;;;;;;;;;;10536906;28;20032;-63
2022/02/26 08:50:07;;;;;;;5.72;3.35;;;;;;;;;;10536668;28;20077;-63
2022/02/26 08:55:08;;;;;;;10.13;2.92;;;;;;;;;;10536632;28;20036;-63
2022/02/26 09:00:10;;;;;;;10.25;3.13;;;;;;;;;;10534963;28;20083;-62
2022/02/26 09:05:12;;;;;;;6.97;2.80;;;;;;;;;;10536379;28;20043;-63
2022/02/26 09:10:13;;;;;;;7.05;3.38;;;;;;;;;;10536630;28;20487;-63
2022/02/26 09:15:14;;;;;;;5.10;2.92;;;;;;;;;;10530512;28;20028;-63
2022/02/26 09:20:15;;;;;;;5.88;2.40;;;;;;;;;;10536514;28;20028;-63
2022/02/26 09:25:15;;;;;;;3.78;2.70;;;;;;;;;;10536195;28;20375;-63
2022/02/26 09:30:16;;;;;;;3.35;2.60;;;;;;;;;;10536350;28;20020;-62
2022/02/26 09:35:16;;;;;;;7.03;2.53;;;;;;;;;;10536120;28;20525;-64
2022/02/26 09:40:17;;;;;;;8.02;3.38;;;;;;;;;;10535510;28;20468;-64
2022/02/26 09:45:17;;;;;;;18.77;7.72;;;;;;;;;;10532664;28;20450;-66
2022/02/26 09:50:18;;;;;;;43.38;21.08;;;;;;;;;;10535394;28;20028;-65
2022/02/26 09:55:18;;;;;;;58.65;32.47;;;;;;;;;;10535237;28;20043;-62
2022/02/26 10:00:19;;;;;;;86.13;43.70;;;;;;;;;;10534239;28;20036;-62
2022/02/26 10:05:20;;;;;;;104.35;59.55;;;;;;;;;;10534507;28;20382;-62
2022/02/26 10:10:27;;;;;;;126.10;69.13;;;;;;;;;;10534680;28;20034;-62
2022/02/26 10:15:40;;;;;;;139.13;78.57;;;;;;;;;;10531005;28;20040;-63
2022/02/26 10:20:54;;;;;;;152.05;89.85;;;;;;;;;;10530013;28;20024;-64
2022/02/26 10:26:08;;;;;;;171.35;99.97;;;;;;;;;;10532350;28;20028;-63
2022/02/26 10:31:10;;;;;;;193.10;111.05;;;;;;;;;;10534072;28;20024;-62
2022/02/26 10:36:10;;;;;;;181.70;104.50;;;;;;;;;;10533521;28;20032;-63
2022/02/26 10:41:13;;;;;;;119.68;69.20;;;;;;;;;;10534033;28;20028;-63
2022/02/26 10:46:22;;;;;;;115.97;60.17;;;;;;;;;;10532873;28;20032;-62
2022/02/26 10:51:25;;;;;;;96.10;55.45;;;;;;;;;;10530851;28;20060;-63
2022/02/26 10:56:31;;;;;;;94.00;52.35;;;;;;;;;;10527066;28;20435;-61
2022/02/26 11:01:32;;;;;;;90.90;49.38;;;;;;;;;;10534024;28;20028;-62
2022/02/26 11:06:33;;;;;;;88.97;50.58;;;;;;;;;;10531807;28;20031;-63
2022/02/26 11:11:34;;;;;;;87.65;50.15;;;;;;;;;;10531442;28;20487;-63
2022/02/26 11:16:36;;;;;;;94.50;52.22;;;;;;;;;;10532355;28;20039;-64
2022/02/26 11:21:36;;;;;;;94.97;53.15;;;;;;;;;;10529055;28;20031;-61
2022/02/26 11:26:37;;;;;;;94.28;51.90;;;;;;;;;;10535142;28;20028;-64
2022/02/26 11:31:51;;;;;;;92.47;53.25;;;;;;;;;;10538842;28;20085;-62
2022/02/26 11:36:53;;;;;;;99.50;53.72;;;;;;;;;;10539161;28;20471;-63
2022/02/26 11:42:12;;;;;;;95.43;53.67;;;;;;;;;;10539143;28;20055;-64
2022/02/26 11:47:17;;;;;;;137.50;81.85;;;;;;;;;;10539900;28;20039;-62
2022/02/26 11:52:17;;;;;;;80.40;47.45;;;;;;;;;;10538786;28;20020;-63
2022/02/26 11:57:18;;;;;;;93.23;52.90;;;;;;;;;;10536917;28;20040;-62
2022/02/26 12:02:18;;;;;;;79.05;46.22;;;;;;;;;;10538250;28;20905;-62
2022/02/26 12:07:40;;;;;;;95.80;55.45;;;;;;;;;;10537136;28;20028;-62
2022/02/26 12:12:48;;;;;;;175.45;98.75;;;;;;;;;;10538977;28;20070;-62
2022/02/26 12:17:54;;;;;;;167.67;99.67;;;;;;;;;;10538979;28;20047;-63
2022/02/26 12:23:06;;;;;;;188.43;112.13;;;;;;;;;;10538398;28;20057;-62
2022/02/26 12:28:08;;;;;;;211.25;123.30;;;;;;;;;;10533042;28;20039;-62
2022/02/26 12:33:10;;;;;;;215.27;124.90;;;;;;;;;;10538066;28;20468;-62
2022/02/26 12:38:20;;;;;;;239.35;137.27;;;;;;;;;;10534938;28;20027;-62
2022/02/26 12:43:29;;;;;;;267.58;162.82;;;;;;;;;;10537964;28;20491;-63
2022/02/26 12:48:30;;;;;;;277.20;172.27;;;;;;;;;;10536782;28;20028;-63
2022/02/26 12:53:34;;;;;;;271.98;162.05;;;;;;;;;;10537195;28;20133;-62
2022/02/26 12:58:35;;;;;;;266.92;160.00;;;;;;;;;;10536801;28;20312;-63
2022/02/26 13:03:35;;;;;;;255.63;149.88;;;;;;;;;;10535515;28;20103;-61
2022/02/26 13:08:36;;;;;;;247.93;144.43;;;;;;;;;;10537014;28;20433;-60
2022/02/26 13:13:36;;;;;;;231.27;135.47;;;;;;;;;;10532815;28;20463;-61
2022/02/26 13:18:37;;;;;;;225.10;131.60;;;;;;;;;;10533135;28;20441;-61
2022/02/26 13:23:37;;;;;;;215.80;126.57;;;;;;;;;;10534405;28;20457;-63
2022/02/26 13:28:37;;;;;;;225.65;128.70;;;;;;;;;;10535238;28;20613;-62
2022/02/26 13:33:38;;;;;;;212.93;123.60;;;;;;;;;;10534189;28;20116;-62
2022/02/26 13:38:39;;;;;;;208.65;119.78;;;;;;;;;;10524819;28;20547;-62
2022/02/26 13:43:39;;;;;;;180.02;109.85;;;;;;;;;;10534397;28;20115;-63
2022/02/26 13:48:44;;;;;;;188.57;111.13;;;;;;;;;;10531913;28;20174;-62
2022/02/26 13:53:44;;;;;;;171.88;103.63;;;;;;;;;;10535170;28;20445;-62
2022/02/26 13:58:52;;;;;;;146.83;87.17;;;;;;;;;;10533792;28;20051;-62
2022/02/26 14:03:54;;;;;;;139.40;84.70;;;;;;;;;;10534513;28;20432;-62
2022/02/26 14:08:55;;;;;;;136.25;81.93;;;;;;;;;;10534443;28;20036;-62
2022/02/26 14:13:57;;;;;;;130.63;80.28;;;;;;;;;;10534908;28;20039;-62
2022/02/26 14:19:01;;;;;;;130.73;74.75;;;;;;;;;;10534572;28;20020;-62
2022/02/26 14:24:02;;;;;;;122.07;70.75;;;;;;;;;;10534259;28;20039;-62
2022/02/26 14:29:03;;;;;;;120.03;70.40;;;;;;;;;;10532962;28;20020;-62
2022/02/26 14:34:04;;;;;;;106.97;63.13;;;;;;;;;;10533598;28;20020;-62
2022/02/26 14:39:04;;;;;;;95.97;61.37;;;;;;;;;;10529798;28;20100;-62
2022/02/26 14:44:05;;;;;;;98.72;59.38;;;;;;;;;;10530638;28;20436;-62
2022/02/26 14:49:05;;;;;;;95.70;55.13;;;;;;;;;;10533730;28;20111;-62
2022/02/26 14:54:05;;;;;;;87.50;53.83;;;;;;;;;;10532786;28;20414;-62
2022/02/26 14:59:06;;;;;;;79.13;50.20;;;;;;;;;;10535357;28;20143;-62
2022/02/26 15:04:06;;;;;;;88.43;49.07;;;;;;;;;;10541052;28;20508;-62
2022/02/26 15:09:07;;;;;;;74.15;44.53;;;;;;;;;;10541457;28;20466;-62
2022/02/26 15:14:07;;;;;;;70.80;41.90;;;;;;;;;;10540789;28;20178;-62
2022/02/26 15:19:08;;;;;;;66.23;40.03;;;;;;;;;;10541135;28;20035;-62
2022/02/26 15:24:08;;;;;;;69.53;42.00;;;;;;;;;;10540365;28;20425;-62
2022/02/26 15:29:08;;;;;;;65.63;40.22;;;;;;;;;;10540106;28;20282;-62
2022/02/26 15:34:09;;;;;;;68.28;41.35;;;;;;;;;;10540537;28;20052;-62
2022/02/26 15:39:09;;;;;;;60.10;38.30;;;;;;;;;;10540251;28;20032;-62
2022/02/26 15:44:10;;;;;;;62.90;38.77;;;;;;;;;;10533017;28;20016;-62
2022/02/26 15:49:11;;;;;;;61.53;36.70;;;;;;;;;;10540281;28;20460;-62
2022/02/26 15:54:11;;;;;;;61.67;37.25;;;;;;;;;;10539179;28;20313;-62
2022/02/26 15:59:12;;;;;;;56.97;34.87;;;;;;;;;;10539186;28;20044;-62
2022/02/26 16:04:12;;;;;;;57.10;34.93;;;;;;;;;;10539246;28;20508;-62
2022/02/26 16:09:13;;;;;;;48.28;33.55;;;;;;;;;;10538060;28;20039;-62
2022/02/26 16:14:13;;;;;;;54.75;32.78;;;;;;;;;;10538289;28;20024;-62
2022/02/26 16:19:14;;;;;;;55.38;31.95;;;;;;;;;;10538745;28;20364;-62
2022/02/26 16:24:14;;;;;;;52.27;31.60;;;;;;;;;;10538249;28;20110;-62
2022/02/26 16:29:14;;;;;;;45.93;30.67;;;;;;;;;;10537682;28;20527;-62
2022/02/26 16:34:15;;;;;;;49.20;30.57;;;;;;;;;;10538572;28;20024;-62
2022/02/26 16:39:16;;;;;;;47.33;29.92;;;;;;;;;;10537441;28;20575;-62
2022/02/26 16:44:16;;;;;;;46.53;30.10;;;;;;;;;;10534074;28;20161;-62
2022/02/26 16:49:16;;;;;;;48.53;28.17;;;;;;;;;;10537250;28;20460;-62
2022/02/26 16:54:17;;;;;;;41.90;26.13;;;;;;;;;;10533604;28;20516;-62
2022/02/26 16:59:17;;;;;;;41.67;26.67;;;;;;;;;;10536719;28;20055;-61
2022/02/26 17:04:17;;;;;;;37.03;23.50;;;;;;;;;;10536328;28;20453;-62
2022/02/26 17:09:18;;;;;;;42.50;24.07;;;;;;;;;;10536662;28;20024;-61
2022/02/26 17:14:19;;;;;;;32.28;21.35;;;;;;;;;;10532267;28;20024;-61
2022/02/26 17:19:19;;;;;;;32.07;20.43;;;;;;;;;;10532700;28;20020;-62
2022/02/26 17:24:20;;;;;;;27.00;19.90;;;;;;;;;;10535936;28;20899;-62
2022/02/26 17:29:21;;;;;;;30.97;19.60;;;;;;;;;;10535795;28;20058;-62
2022/02/26 17:34:23;;;;;;;27.75;17.75;;;;;;;;;;10535996;28;20348;-61
2022/02/26 17:39:24;;;;;;;27.50;18.20;;;;;;;;;;10536090;28;20020;-62
2022/02/26 17:44:24;;;;;;;22.58;16.27;;;;;;;;;;10535479;28;20050;-62
2022/02/26 17:49:24;;;;;;;23.50;16.55;;;;;;;;;;10535520;28;20028;-62
2022/02/26 17:54:25;;;;;;;28.33;17.77;;;;;;;;;;10532503;28;20416;-62
2022/02/26 17:59:25;;;;;;;26.90;18.13;;;;;;;;;;10531631;28;20467;-62
2022/02/26 18:04:27;;;;;;;25.25;16.77;;;;;;;;;;10535358;28;20569;-62
2022/02/26 18:09:27;;;;;;;25.65;17.17;;;;;;;;;;10534747;28;20031;-63
2022/02/26 18:14:28;;;;;;;23.70;15.57;;;;;;;;;;10535088;28;20482;-62
2022/02/26 18:19:28;;;;;;;24.92;16.55;;;;;;;;;;10531645;28;20357;-60
2022/02/26 18:24:31;;;;;;;24.13;16.20;;;;;;;;;;10533445;28;20028;-60
2022/02/26 18:29:31;;;;;;;24.17;17.20;;;;;;;;;;10532792;28;20472;-62
2022/02/26 18:34:31;;;;;;;27.27;16.63;;;;;;;;;;10533054;28;20578;-60
2022/02/26 18:39:32;;;;;;;24.60;15.33;;;;;;;;;;10532478;28;20441;-59
2022/02/26 18:44:32;;;;;;;24.85;15.25;;;;;;;;;;10532700;28;20028;-60
2022/02/26 18:49:33;;;;;;;24.35;15.65;;;;;;;;;;10532210;28;20399;-60
2022/02/26 18:54:34;;;;;;;26.23;15.93;;;;;;;;;;10531428;28;20112;-58
2022/02/26 18:59:35;;;;;;;24.02;15.32;;;;;;;;;;10524269;28;20101;-58
2022/02/26 19:04:36;;;;;;;22.27;14.65;;;;;;;;;;10532782;28;20124;-62
2022/02/26 19:09:37;;;;;;;26.13;16.40;;;;;;;;;;10532030;28;20035;-62
2022/02/26 19:14:37;;;;;;;30.00;16.13;;;;;;;;;;10532792;28;20826;-61
2022/02/26 19:19:38;;;;;;;25.90;15.13;;;;;;;;;;10532587;28;20506;-58
2022/02/26 19:24:39;;;;;;;23.23;16.20;;;;;;;;;;10533286;28;20479;-60
2022/02/26 19:29:39;;;;;;;28.30;15.77;;;;;;;;;;10531790;28;20579;-60
2022/02/26 19:34:39;;;;;;;43.33;17.97;;;;;;;;;;10531839;28;20103;-60
2022/02/26 19:39:41;;;;;;;36.03;17.63;;;;;;;;;;10531687;28;20445;-61
2022/02/26 19:44:44;;;;;;;32.28;16.20;;;;;;;;;;10533077;28;20020;-61
2022/02/26 19:49:44;;;;;;;27.88;15.10;;;;;;;;;;10539487;28;20032;-60
2022/02/26 19:54:45;;;;;;;32.20;15.52;;;;;;;;;;10539660;28;20103;-60
2022/02/26 19:59:46;;;;;;;27.85;15.10;;;;;;;;;;10532751;28;20388;-60
2022/02/26 20:04:46;;;;;;;21.77;13.63;;;;;;;;;;10538764;28;20032;-60
2022/02/26 20:09:48;;;;;;;20.87;13.27;;;;;;;;;;10539104;28;20464;-61
2022/02/26 20:14:48;;;;;;;25.48;13.88;;;;;;;;;;10537128;28;20474;-61
2022/02/26 20:19:48;;;;;;;24.90;13.40;;;;;;;;;;10538230;28;20034;-64
2022/02/26 20:24:49;;;;;;;24.77;13.23;;;;;;;;;;10538279;28;20467;-62
2022/02/26 20:29:49;;;;;;;25.17;13.47;;;;;;;;;;10536358;28;20468;-55
2022/02/26 20:34:49;;;;;;;22.40;13.90;;;;;;;;;;10537662;28;20028;-60
2022/02/26 20:39:50;;;;;;;33.45;14.15;;;;;;;;;;10537426;28;20456;-63
2022/02/26 20:44:50;;;;;;;22.13;14.30;;;;;;;;;;10538098;28;20086;-63
2022/02/26 20:49:51;;;;;;;31.75;14.55;;;;;;;;;;10537722;28;20449;-61
2022/02/26 20:54:51;;;;;;;25.20;13.88;;;;;;;;;;10537003;28;20515;-60
2022/02/26 20:59:52;;;;;;;24.70;14.63;;;;;;;;;;10533293;28;20047;-60
2022/02/26 21:04:52;;;;;;;27.57;14.47;;;;;;;;;;10536968;28;20528;-60
2022/02/26 21:09:52;;;;;;;26.50;13.80;;;;;;;;;;10532878;28;20603;-62
2022/02/26 21:14:53;;;;;;;26.23;14.70;;;;;;;;;;10536391;28;20028;-60
2022/02/26 21:19:53;;;;;;;24.52;14.63;;;;;;;;;;10537026;28;20035;-60
2022/02/26 21:24:54;;;;;;;28.10;14.03;;;;;;;;;;10536411;28;20582;-60
2022/02/26 21:29:54;;;;;;;29.95;14.25;;;;;;;;;;10535280;28;20477;-52
2022/02/26 21:34:55;;;;;;;21.37;13.00;;;;;;;;;;10535370;28;20208;-59
2022/02/26 21:39:55;;;;;;;24.58;12.95;;;;;;;;;;10535808;28;20508;-57
2022/02/26 21:44:56;;;;;;;22.00;13.57;;;;;;;;;;10535436;28;20027;-60
2022/02/26 21:49:56;;;;;;;27.33;13.23;;;;;;;;;;10534805;28;20486;-58
2022/02/26 21:54:57;;;;;;;22.83;13.00;;;;;;;;;;10535043;28;20028;-61
2022/02/26 21:59:57;;;;;;;22.80;13.25;;;;;;;;;;10534254;28;20800;-61
2022/02/26 22:04:58;;;;;;;28.45;14.20;;;;;;;;;;10533384;28;20094;-58
2022/02/26 22:09:59;;;;;;;23.88;13.68;;;;;;;;;;10530826;28;20020;-57
2022/02/26 22:14:59;;;;;;;25.08;12.60;;;;;;;;;;10534534;28;20028;-53
2022/02/26 22:20:02;;;;;;;28.23;14.07;;;;;;;;;;10530389;28;20664;-60
2022/02/26 22:25:03;;;;;;;24.80;12.07;;;;;;;;;;10534113;28;20445;-60
2022/02/26 22:30:04;;;;;;;24.60;12.23;;;;;;;;;;10533108;28;20456;-57
2022/02/26 22:35:06;;;;;;;19.42;12.52;;;;;;;;;;10533879;28;20115;-59
2022/02/26 22:40:08;;;;;;;18.63;11.82;;;;;;;;;;10533115;28;20101;-58
2022/02/26 22:45:08;;;;;;;23.95;11.35;;;;;;;;;;10532340;28;20497;-60
2022/02/26 22:50:09;;;;;;;27.33;11.10;;;;;;;;;;10531933;28;20028;-62
2022/02/26 22:55:10;;;;;;;21.23;12.57;;;;;;;;;;10532130;28;20502;-61
2022/02/26 23:00:25;;;;;;;22.77;11.50;;;;;;;;;;10529895;28;20052;-60
2022/02/26 23:05:28;;;;;;;18.30;12.00;;;;;;;;;;10531502;28;20494;-61
2022/02/26 23:10:28;;;;;;;19.85;11.80;;;;;;;;;;10530945;28;20028;-61
2022/02/26 23:15:28;;;;;;;21.50;11.18;;;;;;;;;;10532651;28;20413;-61
2022/02/26 23:20:29;;;;;;;19.77;11.00;;;;;;;;;;10531383;28;20027;-61
2022/02/26 23:25:30;;;;;;;20.45;11.45;;;;;;;;;;10540742;28;20508;-61
2022/02/26 23:30:31;;;;;;;20.27;10.85;;;;;;;;;;10537547;28;20464;-61
2022/02/26 23:35:32;;;;;;;18.30;10.95;;;;;;;;;;10540585;28;20085;-61
2022/02/26 23:40:32;;;;;;;20.65;12.10;;;;;;;;;;10540302;28;20080;-61
2022/02/26 23:45:33;;;;;;;19.98;11.38;;;;;;;;;;10539789;28;20107;-61
2022/02/26 23:50:33;;;;;;;16.48;10.02;;;;;;;;;;10540193;28;20034;-61
2022/02/26 23:55:33;;;;;;;18.70;10.33;;;;;;;;;;10539888;28;20024;-60
